sensor_id;sensor_type;location;lat;lon;timestamp;P1;durP1;ratioP1;P2;durP2;ratioP2
21260;SDS011;10788;47.930;9.766;2023-06-22T00:00:54;0.10;;;0.10;;
21260;SDS011;10788;47.930;9.766;2023-06-22T00:03:21;0.00;;;0.00;;
21260;SDS011;10788;47.930;9.766;2023-06-22T00:05:49;0.10;;;0.10;;
21260;SDS011;10788;47.930;9.766;2023-06-22T00:08:15;0.00;;;0.00;;
21260;SDS011;10788;47.930;9.766;2023-06-22T00:10:42;0.00;;;0.00;;
21260;SDS011;10788;47.930;9.766;2023-06-22T00:13:08;0.00;;;0.00;;
21260;SDS011;10788;47.930;9.766;2023-06-22T00:15:34;0.10;;;0.10;;
21260;SDS011;10788;47.930;9.766;2023-06-22T00:18:00;0.10;;;0.10;;
21260;SDS011;10788;47.930;9.766;2023-06-22T00:20:27;0.10;;;0.10;;
21260;SDS011;10788;47.930;9.766;2023-06-22T00:22:56;0.10;;;0.10;;
21260;SDS011;10788;47.930;9.766;2023-06-22T00:25:22;0.00;;;0.00;;
21260;SDS011;10788;47.930;9.766;2023-06-22T00:27:48;0.10;;;0.10;;
21260;SDS011;10788;47.930;9.766;2023-06-22T00:30:17;0.10;;;0.10;;
21260;SDS011;10788;47.930;9.766;2023-06-22T00:32:44;0.10;;;0.10;;
21260;SDS011;10788;47.930;9.766;2023-06-22T00:35:10;0.00;;;0.00;;
21260;SDS011;10788;47.930;9.766;2023-06-22T00:37:39;0.10;;;0.10;;
21260;SDS011;10788;47.930;9.766;2023-06-22T00:40:08;0.10;;;0.10;;
21260;SDS011;10788;47.930;9.766;2023-06-22T00:42:36;0.10;;;0.10;;
21260;SDS011;10788;47.930;9.766;2023-06-22T00:45:03;0.10;;;0.10;;
21260;SDS011;10788;47.930;9.766;2023-06-22T00:47:29;0.00;;;0.00;;
21260;SDS011;10788;47.930;9.766;2023-06-22T00:49:54;0.00;;;0.00;;
21260;SDS011;10788;47.930;9.766;2023-06-22T00:52:21;0.00;;;0.00;;
21260;SDS011;10788;47.930;9.766;2023-06-22T00:54:52;0.03;;;0.03;;
21260;SDS011;10788;47.930;9.766;2023-06-22T00:57:19;0.00;;;0.00;;
21260;SDS011;10788;47.930;9.766;2023-06-22T00:59:46;0.03;;;0.03;;
21260;SDS011;10788;47.930;9.766;2023-06-22T01:02:13;0.10;;;0.10;;
21260;SDS011;10788;47.930;9.766;2023-06-22T01:04:39;0.00;;;0.00;;
21260;SDS011;10788;47.930;9.766;2023-06-22T01:12:52;0.10;;;0.10;;
21260;SDS011;10788;47.930;9.766;2023-06-22T01:17:58;0.10;;;0.10;;
21260;SDS011;10788;47.930;9.766;2023-06-22T01:20:26;0.10;;;0.10;;
21260;SDS011;10788;47.930;9.766;2023-06-22T01:25:57;0.00;;;0.00;;
21260;SDS011;10788;47.930;9.766;2023-06-22T01:28:45;0.00;;;0.00;;
21260;SDS011;10788;47.930;9.766;2023-06-22T01:31:19;0.00;;;0.00;;
21260;SDS011;10788;47.930;9.766;2023-06-22T01:33:50;0.00;;;0.00;;
21260;SDS011;10788;47.930;9.766;2023-06-22T01:36:21;0.00;;;0.00;;
21260;SDS011;10788;47.930;9.766;2023-06-22T01:38:48;0.00;;;0.00;;
21260;SDS011;10788;47.930;9.766;2023-06-22T01:41:14;0.00;;;0.00;;
21260;SDS011;10788;47.930;9.766;2023-06-22T01:43:41;0.03;;;0.03;;
21260;SDS011;10788;47.930;9.766;2023-06-22T01:46:08;0.00;;;0.00;;
21260;SDS011;10788;47.930;9.766;2023-06-22T01:48:34;0.00;;;0.00;;
21260;SDS011;10788;47.930;9.766;2023-06-22T01:51:00;0.00;;;0.00;;
21260;SDS011;10788;47.930;9.766;2023-06-22T01:53:27;0.10;;;0.10;;
21260;SDS011;10788;47.930;9.766;2023-06-22T01:55:53;0.00;;;0.00;;
21260;SDS011;10788;47.930;9.766;2023-06-22T01:58:18;0.00;;;0.00;;
21260;SDS011;10788;47.930;9.766;2023-06-22T02:00:51;0.00;;;0.00;;
21260;SDS011;10788;47.930;9.766;2023-06-22T02:03:23;0.00;;;0.00;;
21260;SDS011;10788;47.930;9.766;2023-06-22T02:05:56;0.00;;;0.00;;
21260;SDS011;10788;47.930;9.766;2023-06-22T02:08:33;0.00;;;0.00;;
21260;SDS011;10788;47.930;9.766;2023-06-22T02:11:05;0.00;;;0.00;;
21260;SDS011;10788;47.930;9.766;2023-06-22T02:13:33;0.00;;;0.00;;
21260;SDS011;10788;47.930;9.766;2023-06-22T02:16:00;0.00;;;0.00;;
21260;SDS011;10788;47.930;9.766;2023-06-22T02:18:26;0.00;;;0.00;;
21260;SDS011;10788;47.930;9.766;2023-06-22T02:20:53;0.00;;;0.00;;
21260;SDS011;10788;47.930;9.766;2023-06-22T02:23:18;0.07;;;0.07;;
21260;SDS011;10788;47.930;9.766;2023-06-22T02:25:44;0.10;;;0.10;;
21260;SDS011;10788;47.930;9.766;2023-06-22T02:28:10;0.00;;;0.00;;
21260;SDS011;10788;47.930;9.766;2023-06-22T02:30:35;0.10;;;0.10;;
21260;SDS011;10788;47.930;9.766;2023-06-22T02:33:01;0.07;;;0.07;;
21260;SDS011;10788;47.930;9.766;2023-06-22T02:35:27;0.00;;;0.00;;
21260;SDS011;10788;47.930;9.766;2023-06-22T02:38:00;0.00;;;0.00;;
21260;SDS011;10788;47.930;9.766;2023-06-22T02:40:27;0.00;;;0.00;;
21260;SDS011;10788;47.930;9.766;2023-06-22T02:42:54;0.00;;;0.00;;
21260;SDS011;10788;47.930;9.766;2023-06-22T02:45:20;0.00;;;0.00;;
21260;SDS011;10788;47.930;9.766;2023-06-22T02:47:45;0.00;;;0.00;;
21260;SDS011;10788;47.930;9.766;2023-06-22T02:50:12;0.00;;;0.00;;
21260;SDS011;10788;47.930;9.766;2023-06-22T02:52:38;0.00;;;0.00;;
21260;SDS011;10788;47.930;9.766;2023-06-22T02:55:04;0.00;;;0.00;;
21260;SDS011;10788;47.930;9.766;2023-06-22T02:57:32;0.00;;;0.00;;
21260;SDS011;10788;47.930;9.766;2023-06-22T02:59:59;0.00;;;0.00;;
21260;SDS011;10788;47.930;9.766;2023-06-22T03:02:24;0.00;;;0.00;;
21260;SDS011;10788;47.930;9.766;2023-06-22T03:04:51;0.00;;;0.00;;
21260;SDS011;10788;47.930;9.766;2023-06-22T03:07:18;0.00;;;0.00;;
21260;SDS011;10788;47.930;9.766;2023-06-22T03:09:47;0.10;;;0.10;;
21260;SDS011;10788;47.930;9.766;2023-06-22T03:12:12;0.00;;;0.00;;
21260;SDS011;10788;47.930;9.766;2023-06-22T03:14:38;0.00;;;0.00;;
21260;SDS011;10788;47.930;9.766;2023-06-22T03:17:04;0.00;;;0.00;;
21260;SDS011;10788;47.930;9.766;2023-06-22T03:19:30;0.00;;;0.00;;
21260;SDS011;10788;47.930;9.766;2023-06-22T03:21:57;0.00;;;0.00;;
21260;SDS011;10788;47.930;9.766;2023-06-22T03:24:24;0.00;;;0.00;;
21260;SDS011;10788;47.930;9.766;2023-06-22T03:26:54;0.00;;;0.00;;
21260;SDS011;10788;47.930;9.766;2023-06-22T03:29:25;0.00;;;0.00;;
21260;SDS011;10788;47.930;9.766;2023-06-22T03:31:51;0.00;;;0.00;;
21260;SDS011;10788;47.930;9.766;2023-06-22T03:34:16;0.00;;;0.00;;
21260;SDS011;10788;47.930;9.766;2023-06-22T03:36:42;0.00;;;0.00;;
21260;SDS011;10788;47.930;9.766;2023-06-22T03:39:10;0.00;;;0.00;;
21260;SDS011;10788;47.930;9.766;2023-06-22T03:41:35;0.00;;;0.00;;
21260;SDS011;10788;47.930;9.766;2023-06-22T03:44:01;0.00;;;0.00;;
21260;SDS011;10788;47.930;9.766;2023-06-22T03:46:26;0.00;;;0.00;;
21260;SDS011;10788;47.930;9.766;2023-06-22T03:48:52;0.00;;;0.00;;
21260;SDS011;10788;47.930;9.766;2023-06-22T03:51:18;0.00;;;0.00;;
21260;SDS011;10788;47.930;9.766;2023-06-22T03:53:44;0.00;;;0.00;;
21260;SDS011;10788;47.930;9.766;2023-06-22T03:56:09;0.00;;;0.00;;
21260;SDS011;10788;47.930;9.766;2023-06-22T03:58:35;0.00;;;0.00;;
21260;SDS011;10788;47.930;9.766;2023-06-22T04:01:01;0.00;;;0.00;;
21260;SDS011;10788;47.930;9.766;2023-06-22T04:03:27;0.00;;;0.00;;
21260;SDS011;10788;47.930;9.766;2023-06-22T04:05:53;0.00;;;0.00;;
21260;SDS011;10788;47.930;9.766;2023-06-22T04:08:18;0.00;;;0.00;;
21260;SDS011;10788;47.930;9.766;2023-06-22T04:10:44;0.00;;;0.00;;
21260;SDS011;10788;47.930;9.766;2023-06-22T04:13:10;0.00;;;0.00;;
21260;SDS011;10788;47.930;9.766;2023-06-22T04:15:35;0.00;;;0.00;;
21260;SDS011;10788;47.930;9.766;2023-06-22T04:18:01;0.00;;;0.00;;
21260;SDS011;10788;47.930;9.766;2023-06-22T04:20:27;0.00;;;0.00;;
21260;SDS011;10788;47.930;9.766;2023-06-22T04:22:56;0.00;;;0.00;;
21260;SDS011;10788;47.930;9.766;2023-06-22T04:25:21;0.00;;;0.00;;
21260;SDS011;10788;47.930;9.766;2023-06-22T04:27:47;0.00;;;0.00;;
21260;SDS011;10788;47.930;9.766;2023-06-22T04:30:13;0.00;;;0.00;;
21260;SDS011;10788;47.930;9.766;2023-06-22T04:32:43;0.00;;;0.00;;
21260;SDS011;10788;47.930;9.766;2023-06-22T04:35:09;0.00;;;0.00;;
21260;SDS011;10788;47.930;9.766;2023-06-22T04:37:35;0.00;;;0.00;;
21260;SDS011;10788;47.930;9.766;2023-06-22T04:40:01;0.00;;;0.00;;
21260;SDS011;10788;47.930;9.766;2023-06-22T04:42:29;0.00;;;0.00;;
21260;SDS011;10788;47.930;9.766;2023-06-22T04:44:55;0.00;;;0.00;;
21260;SDS011;10788;47.930;9.766;2023-06-22T04:47:21;0.00;;;0.00;;
21260;SDS011;10788;47.930;9.766;2023-06-22T04:49:46;0.00;;;0.00;;
21260;SDS011;10788;47.930;9.766;2023-06-22T04:52:12;0.00;;;0.00;;
21260;SDS011;10788;47.930;9.766;2023-06-22T04:54:45;0.00;;;0.00;;
21260;SDS011;10788;47.930;9.766;2023-06-22T04:57:15;0.00;;;0.00;;
21260;SDS011;10788;47.930;9.766;2023-06-22T04:59:41;0.00;;;0.00;;
21260;SDS011;10788;47.930;9.766;2023-06-22T05:02:07;0.10;;;0.10;;
21260;SDS011;10788;47.930;9.766;2023-06-22T05:04:33;0.00;;;0.00;;
21260;SDS011;10788;47.930;9.766;2023-06-22T05:07:00;0.00;;;0.00;;
21260;SDS011;10788;47.930;9.766;2023-06-22T05:09:27;0.03;;;0.03;;
21260;SDS011;10788;47.930;9.766;2023-06-22T05:11:55;0.00;;;0.00;;
21260;SDS011;10788;47.930;9.766;2023-06-22T05:14:21;0.00;;;0.00;;
21260;SDS011;10788;47.930;9.766;2023-06-22T05:16:48;0.00;;;0.00;;
21260;SDS011;10788;47.930;9.766;2023-06-22T05:19:14;0.00;;;0.00;;
21260;SDS011;10788;47.930;9.766;2023-06-22T05:21:40;0.00;;;0.00;;
21260;SDS011;10788;47.930;9.766;2023-06-22T05:24:05;0.10;;;0.10;;
21260;SDS011;10788;47.930;9.766;2023-06-22T05:26:34;0.00;;;0.00;;
21260;SDS011;10788;47.930;9.766;2023-06-22T05:29:01;0.00;;;0.00;;
21260;SDS011;10788;47.930;9.766;2023-06-22T05:31:27;0.00;;;0.00;;
21260;SDS011;10788;47.930;9.766;2023-06-22T05:33:54;0.00;;;0.00;;
21260;SDS011;10788;47.930;9.766;2023-06-22T05:36:20;0.00;;;0.00;;
21260;SDS011;10788;47.930;9.766;2023-06-22T05:38:46;0.00;;;0.00;;
21260;SDS011;10788;47.930;9.766;2023-06-22T05:41:12;0.00;;;0.00;;
21260;SDS011;10788;47.930;9.766;2023-06-22T05:43:39;0.00;;;0.00;;
21260;SDS011;10788;47.930;9.766;2023-06-22T05:46:04;0.00;;;0.00;;
21260;SDS011;10788;47.930;9.766;2023-06-22T05:48:30;0.10;;;0.10;;
21260;SDS011;10788;47.930;9.766;2023-06-22T05:50:56;0.00;;;0.00;;
21260;SDS011;10788;47.930;9.766;2023-06-22T05:53:22;0.00;;;0.00;;
21260;SDS011;10788;47.930;9.766;2023-06-22T05:55:48;0.03;;;0.03;;
21260;SDS011;10788;47.930;9.766;2023-06-22T05:58:14;0.10;;;0.10;;
21260;SDS011;10788;47.930;9.766;2023-06-22T06:00:40;0.00;;;0.00;;
21260;SDS011;10788;47.930;9.766;2023-06-22T06:03:09;0.10;;;0.10;;
21260;SDS011;10788;47.930;9.766;2023-06-22T06:05:36;0.00;;;0.00;;
21260;SDS011;10788;47.930;9.766;2023-06-22T06:08:03;0.07;;;0.07;;
21260;SDS011;10788;47.930;9.766;2023-06-22T06:10:31;0.10;;;0.10;;
21260;SDS011;10788;47.930;9.766;2023-06-22T06:12:57;0.00;;;0.00;;
21260;SDS011;10788;47.930;9.766;2023-06-22T06:15:23;0.10;;;0.10;;
21260;SDS011;10788;47.930;9.766;2023-06-22T06:17:52;0.10;;;0.10;;
21260;SDS011;10788;47.930;9.766;2023-06-22T06:20:19;0.10;;;0.10;;
21260;SDS011;10788;47.930;9.766;2023-06-22T06:22:47;0.00;;;0.00;;
21260;SDS011;10788;47.930;9.766;2023-06-22T06:25:13;0.00;;;0.00;;
21260;SDS011;10788;47.930;9.766;2023-06-22T06:27:45;0.10;;;0.10;;
21260;SDS011;10788;47.930;9.766;2023-06-22T06:30:12;0.10;;;0.10;;
21260;SDS011;10788;47.930;9.766;2023-06-22T06:32:38;0.00;;;0.00;;
21260;SDS011;10788;47.930;9.766;2023-06-22T06:35:11;0.00;;;0.00;;
21260;SDS011;10788;47.930;9.766;2023-06-22T06:37:40;0.10;;;0.10;;
21260;SDS011;10788;47.930;9.766;2023-06-22T06:40:08;0.00;;;0.00;;
21260;SDS011;10788;47.930;9.766;2023-06-22T06:42:45;0.10;;;0.10;;
21260;SDS011;10788;47.930;9.766;2023-06-22T06:45:12;0.00;;;0.00;;
21260;SDS011;10788;47.930;9.766;2023-06-22T06:47:48;0.00;;;0.00;;
21260;SDS011;10788;47.930;9.766;2023-06-22T06:50:14;0.10;;;0.10;;
21260;SDS011;10788;47.930;9.766;2023-06-22T06:52:40;0.10;;;0.10;;
21260;SDS011;10788;47.930;9.766;2023-06-22T06:55:07;0.00;;;0.00;;
21260;SDS011;10788;47.930;9.766;2023-06-22T06:57:36;0.10;;;0.10;;
21260;SDS011;10788;47.930;9.766;2023-06-22T07:00:03;0.10;;;0.10;;
21260;SDS011;10788;47.930;9.766;2023-06-22T07:02:34;0.10;;;0.10;;
21260;SDS011;10788;47.930;9.766;2023-06-22T07:05:00;0.00;;;0.00;;
21260;SDS011;10788;47.930;9.766;2023-06-22T07:07:28;0.10;;;0.10;;
21260;SDS011;10788;47.930;9.766;2023-06-22T07:09:54;0.10;;;0.10;;
21260;SDS011;10788;47.930;9.766;2023-06-22T07:12:19;0.10;;;0.10;;
21260;SDS011;10788;47.930;9.766;2023-06-22T07:14:46;0.00;;;0.00;;
21260;SDS011;10788;47.930;9.766;2023-06-22T07:17:11;0.10;;;0.10;;
21260;SDS011;10788;47.930;9.766;2023-06-22T07:19:37;0.10;;;0.10;;
21260;SDS011;10788;47.930;9.766;2023-06-22T07:22:03;0.10;;;0.10;;
21260;SDS011;10788;47.930;9.766;2023-06-22T07:24:29;0.10;;;0.10;;
21260;SDS011;10788;47.930;9.766;2023-06-22T07:26:55;0.10;;;0.10;;
21260;SDS011;10788;47.930;9.766;2023-06-22T07:29:24;0.10;;;0.10;;
21260;SDS011;10788;47.930;9.766;2023-06-22T07:31:51;0.10;;;0.10;;
21260;SDS011;10788;47.930;9.766;2023-06-22T07:34:17;0.10;;;0.10;;
21260;SDS011;10788;47.930;9.766;2023-06-22T07:36:43;0.10;;;0.10;;
21260;SDS011;10788;47.930;9.766;2023-06-22T07:39:09;0.10;;;0.10;;
21260;SDS011;10788;47.930;9.766;2023-06-22T07:41:35;0.10;;;0.10;;
21260;SDS011;10788;47.930;9.766;2023-06-22T07:44:02;0.10;;;0.10;;
21260;SDS011;10788;47.930;9.766;2023-06-22T07:46:28;0.10;;;0.10;;
21260;SDS011;10788;47.930;9.766;2023-06-22T07:48:55;0.10;;;0.10;;
21260;SDS011;10788;47.930;9.766;2023-06-22T07:51:21;0.10;;;0.10;;
21260;SDS011;10788;47.930;9.766;2023-06-22T07:53:48;0.20;;;0.20;;
21260;SDS011;10788;47.930;9.766;2023-06-22T07:56:14;0.20;;;0.20;;
21260;SDS011;10788;47.930;9.766;2023-06-22T07:58:44;0.20;;;0.20;;
21260;SDS011;10788;47.930;9.766;2023-06-22T08:01:11;0.13;;;0.13;;
21260;SDS011;10788;47.930;9.766;2023-06-22T08:03:36;0.10;;;0.10;;
21260;SDS011;10788;47.930;9.766;2023-06-22T08:06:02;0.10;;;0.10;;
21260;SDS011;10788;47.930;9.766;2023-06-22T08:08:28;0.20;;;0.20;;
21260;SDS011;10788;47.930;9.766;2023-06-22T08:10:54;0.20;;;0.20;;
21260;SDS011;10788;47.930;9.766;2023-06-22T08:13:19;0.20;;;0.20;;
21260;SDS011;10788;47.930;9.766;2023-06-22T08:15:45;0.10;;;0.10;;
21260;SDS011;10788;47.930;9.766;2023-06-22T08:18:11;0.20;;;0.20;;
21260;SDS011;10788;47.930;9.766;2023-06-22T08:20:36;0.10;;;0.10;;
21260;SDS011;10788;47.930;9.766;2023-06-22T08:23:02;0.10;;;0.10;;
21260;SDS011;10788;47.930;9.766;2023-06-22T08:25:34;0.20;;;0.20;;
21260;SDS011;10788;47.930;9.766;2023-06-22T08:28:01;0.10;;;0.10;;
21260;SDS011;10788;47.930;9.766;2023-06-22T08:30:27;0.20;;;0.20;;
21260;SDS011;10788;47.930;9.766;2023-06-22T08:32:52;0.20;;;0.20;;
21260;SDS011;10788;47.930;9.766;2023-06-22T08:35:20;0.20;;;0.20;;
21260;SDS011;10788;47.930;9.766;2023-06-22T08:37:47;0.20;;;0.20;;
21260;SDS011;10788;47.930;9.766;2023-06-22T08:40:17;0.30;;;0.30;;
21260;SDS011;10788;47.930;9.766;2023-06-22T08:42:44;0.30;;;0.30;;
21260;SDS011;10788;47.930;9.766;2023-06-22T08:45:10;0.10;;;0.10;;
21260;SDS011;10788;47.930;9.766;2023-06-22T08:47:37;0.20;;;0.20;;
21260;SDS011;10788;47.930;9.766;2023-06-22T08:50:03;0.20;;;0.20;;
21260;SDS011;10788;47.930;9.766;2023-06-22T08:52:29;0.30;;;0.30;;
21260;SDS011;10788;47.930;9.766;2023-06-22T08:54:56;0.30;;;0.30;;
21260;SDS011;10788;47.930;9.766;2023-06-22T08:57:23;0.20;;;0.20;;
21260;SDS011;10788;47.930;9.766;2023-06-22T08:59:48;0.30;;;0.30;;
21260;SDS011;10788;47.930;9.766;2023-06-22T09:02:17;0.20;;;0.20;;
21260;SDS011;10788;47.930;9.766;2023-06-22T09:04:42;0.40;;;0.40;;
21260;SDS011;10788;47.930;9.766;2023-06-22T09:07:08;0.30;;;0.30;;
21260;SDS011;10788;47.930;9.766;2023-06-22T09:09:34;0.30;;;0.30;;
21260;SDS011;10788;47.930;9.766;2023-06-22T09:11:59;0.30;;;0.30;;
21260;SDS011;10788;47.930;9.766;2023-06-22T09:14:25;0.30;;;0.30;;
21260;SDS011;10788;47.930;9.766;2023-06-22T09:16:51;0.40;;;0.40;;
21260;SDS011;10788;47.930;9.766;2023-06-22T09:19:16;0.30;;;0.30;;
21260;SDS011;10788;47.930;9.766;2023-06-22T09:21:42;0.30;;;0.30;;
21260;SDS011;10788;47.930;9.766;2023-06-22T09:24:08;0.37;;;0.37;;
21260;SDS011;10788;47.930;9.766;2023-06-22T09:26:33;0.30;;;0.30;;
21260;SDS011;10788;47.930;9.766;2023-06-22T09:28:59;0.33;;;0.33;;
21260;SDS011;10788;47.930;9.766;2023-06-22T09:31:25;0.37;;;0.37;;
21260;SDS011;10788;47.930;9.766;2023-06-22T09:33:54;0.40;;;0.40;;
21260;SDS011;10788;47.930;9.766;2023-06-22T09:36:20;0.30;;;0.30;;
21260;SDS011;10788;47.930;9.766;2023-06-22T09:38:47;0.30;;;0.30;;
21260;SDS011;10788;47.930;9.766;2023-06-22T09:41:13;0.37;;;0.37;;
21260;SDS011;10788;47.930;9.766;2023-06-22T09:43:39;0.30;;;0.30;;
21260;SDS011;10788;47.930;9.766;2023-06-22T09:46:04;0.40;;;0.40;;
21260;SDS011;10788;47.930;9.766;2023-06-22T09:48:30;0.37;;;0.37;;
21260;SDS011;10788;47.930;9.766;2023-06-22T09:50:56;0.30;;;0.30;;
21260;SDS011;10788;47.930;9.766;2023-06-22T09:53:22;0.40;;;0.40;;
21260;SDS011;10788;47.930;9.766;2023-06-22T09:55:47;0.30;;;0.30;;
21260;SDS011;10788;47.930;9.766;2023-06-22T09:58:13;0.30;;;0.30;;
21260;SDS011;10788;47.930;9.766;2023-06-22T10:00:38;0.30;;;0.30;;
21260;SDS011;10788;47.930;9.766;2023-06-22T10:03:06;0.50;;;0.50;;
21260;SDS011;10788;47.930;9.766;2023-06-22T10:05:32;0.40;;;0.40;;
21260;SDS011;10788;47.930;9.766;2023-06-22T10:07:57;0.30;;;0.30;;
21260;SDS011;10788;47.930;9.766;2023-06-22T10:10:23;0.40;;;0.40;;
21260;SDS011;10788;47.930;9.766;2023-06-22T10:12:55;0.40;;;0.40;;
21260;SDS011;10788;47.930;9.766;2023-06-22T10:15:22;0.33;;;0.33;;
21260;SDS011;10788;47.930;9.766;2023-06-22T10:17:48;0.23;;;0.23;;
21260;SDS011;10788;47.930;9.766;2023-06-22T10:20:14;0.37;;;0.37;;
21260;SDS011;10788;47.930;9.766;2023-06-22T10:22:44;0.30;;;0.30;;
21260;SDS011;10788;47.930;9.766;2023-06-22T10:25:11;0.40;;;0.40;;
21260;SDS011;10788;47.930;9.766;2023-06-22T10:27:37;0.37;;;0.37;;
21260;SDS011;10788;47.930;9.766;2023-06-22T10:30:07;0.40;;;0.40;;
21260;SDS011;10788;47.930;9.766;2023-06-22T10:32:33;0.50;;;0.50;;
21260;SDS011;10788;47.930;9.766;2023-06-22T10:34:59;0.30;;;0.30;;
21260;SDS011;10788;47.930;9.766;2023-06-22T10:37:25;0.20;;;0.20;;
21260;SDS011;10788;47.930;9.766;2023-06-22T10:39:50;0.40;;;0.40;;
21260;SDS011;10788;47.930;9.766;2023-06-22T10:42:16;0.40;;;0.40;;
21260;SDS011;10788;47.930;9.766;2023-06-22T10:44:42;0.50;;;0.50;;
21260;SDS011;10788;47.930;9.766;2023-06-22T10:47:09;0.40;;;0.40;;
21260;SDS011;10788;47.930;9.766;2023-06-22T10:49:37;0.40;;;0.40;;
21260;SDS011;10788;47.930;9.766;2023-06-22T10:52:06;0.40;;;0.40;;
21260;SDS011;10788;47.930;9.766;2023-06-22T10:54:33;0.50;;;0.50;;
21260;SDS011;10788;47.930;9.766;2023-06-22T10:56:59;0.37;;;0.37;;
21260;SDS011;10788;47.930;9.766;2023-06-22T10:59:25;0.40;;;0.40;;
21260;SDS011;10788;47.930;9.766;2023-06-22T11:01:52;0.50;;;0.50;;
21260;SDS011;10788;47.930;9.766;2023-06-22T11:04:18;0.40;;;0.40;;
21260;SDS011;10788;47.930;9.766;2023-06-22T11:06:44;0.40;;;0.40;;
21260;SDS011;10788;47.930;9.766;2023-06-22T11:09:09;0.57;;;0.57;;
21260;SDS011;10788;47.930;9.766;2023-06-22T11:11:35;0.40;;;0.40;;
21260;SDS011;10788;47.930;9.766;2023-06-22T11:14:01;0.40;;;0.40;;
21260;SDS011;10788;47.930;9.766;2023-06-22T11:16:26;0.50;;;0.50;;
21260;SDS011;10788;47.930;9.766;2023-06-22T11:18:52;0.50;;;0.50;;
21260;SDS011;10788;47.930;9.766;2023-06-22T11:21:18;0.40;;;0.40;;
21260;SDS011;10788;47.930;9.766;2023-06-22T11:23:44;0.50;;;0.50;;
21260;SDS011;10788;47.930;9.766;2023-06-22T11:26:10;0.50;;;0.50;;
21260;SDS011;10788;47.930;9.766;2023-06-22T11:28:36;0.40;;;0.40;;
21260;SDS011;10788;47.930;9.766;2023-06-22T11:31:01;0.40;;;0.40;;
21260;SDS011;10788;47.930;9.766;2023-06-22T11:33:27;0.50;;;0.50;;
21260;SDS011;10788;47.930;9.766;2023-06-22T11:35:52;0.50;;;0.50;;
21260;SDS011;10788;47.930;9.766;2023-06-22T11:38:18;0.50;;;0.50;;
21260;SDS011;10788;47.930;9.766;2023-06-22T11:40:43;0.30;;;0.30;;
21260;SDS011;10788;47.930;9.766;2023-06-22T11:43:09;0.40;;;0.40;;
21260;SDS011;10788;47.930;9.766;2023-06-22T11:45:35;0.50;;;0.50;;
21260;SDS011;10788;47.930;9.766;2023-06-22T11:48:00;0.60;;;0.60;;
21260;SDS011;10788;47.930;9.766;2023-06-22T11:50:26;0.53;;;0.53;;
21260;SDS011;10788;47.930;9.766;2023-06-22T11:52:55;0.60;;;0.60;;
21260;SDS011;10788;47.930;9.766;2023-06-22T11:55:20;0.60;;;0.60;;
21260;SDS011;10788;47.930;9.766;2023-06-22T11:57:53;0.60;;;0.60;;
21260;SDS011;10788;47.930;9.766;2023-06-22T12:00:20;0.60;;;0.60;;
21260;SDS011;10788;47.930;9.766;2023-06-22T12:02:48;0.70;;;0.70;;
21260;SDS011;10788;47.930;9.766;2023-06-22T12:05:16;0.63;;;0.63;;
21260;SDS011;10788;47.930;9.766;2023-06-22T12:07:43;0.60;;;0.60;;
21260;SDS011;10788;47.930;9.766;2023-06-22T12:10:08;0.60;;;0.60;;
21260;SDS011;10788;47.930;9.766;2023-06-22T12:12:34;0.67;;;0.67;;
21260;SDS011;10788;47.930;9.766;2023-06-22T12:15:00;0.60;;;0.60;;
21260;SDS011;10788;47.930;9.766;2023-06-22T12:17:28;0.67;;;0.67;;
21260;SDS011;10788;47.930;9.766;2023-06-22T12:19:54;0.60;;;0.60;;
21260;SDS011;10788;47.930;9.766;2023-06-22T12:22:20;0.50;;;0.50;;
21260;SDS011;10788;47.930;9.766;2023-06-22T12:24:46;0.70;;;0.70;;
21260;SDS011;10788;47.930;9.766;2023-06-22T12:27:12;0.63;;;0.63;;
21260;SDS011;10788;47.930;9.766;2023-06-22T12:29:37;0.70;;;0.70;;
21260;SDS011;10788;47.930;9.766;2023-06-22T12:32:03;0.60;;;0.60;;
21260;SDS011;10788;47.930;9.766;2023-06-22T12:34:29;0.53;;;0.53;;
21260;SDS011;10788;47.930;9.766;2023-06-22T12:36:55;0.60;;;0.60;;
21260;SDS011;10788;47.930;9.766;2023-06-22T12:39:20;0.50;;;0.50;;
21260;SDS011;10788;47.930;9.766;2023-06-22T12:41:46;0.60;;;0.60;;
21260;SDS011;10788;47.930;9.766;2023-06-22T12:44:11;0.60;;;0.60;;
21260;SDS011;10788;47.930;9.766;2023-06-22T12:46:37;0.70;;;0.70;;
21260;SDS011;10788;47.930;9.766;2023-06-22T12:49:06;0.60;;;0.60;;
21260;SDS011;10788;47.930;9.766;2023-06-22T12:51:31;0.40;;;0.40;;
21260;SDS011;10788;47.930;9.766;2023-06-22T12:53:57;0.60;;;0.60;;
21260;SDS011;10788;47.930;9.766;2023-06-22T12:56:23;0.60;;;0.60;;
21260;SDS011;10788;47.930;9.766;2023-06-22T12:58:48;0.40;;;0.40;;
21260;SDS011;10788;47.930;9.766;2023-06-22T13:01:14;0.50;;;0.50;;
21260;SDS011;10788;47.930;9.766;2023-06-22T13:03:41;0.50;;;0.50;;
21260;SDS011;10788;47.930;9.766;2023-06-22T13:06:07;0.50;;;0.50;;
21260;SDS011;10788;47.930;9.766;2023-06-22T13:08:32;0.67;;;0.67;;
21260;SDS011;10788;47.930;9.766;2023-06-22T13:10:58;0.50;;;0.50;;
21260;SDS011;10788;47.930;9.766;2023-06-22T13:13:25;0.50;;;0.50;;
21260;SDS011;10788;47.930;9.766;2023-06-22T13:15:52;0.60;;;0.60;;
21260;SDS011;10788;47.930;9.766;2023-06-22T13:18:19;0.50;;;0.50;;
21260;SDS011;10788;47.930;9.766;2023-06-22T13:20:44;0.60;;;0.60;;
21260;SDS011;10788;47.930;9.766;2023-06-22T13:23:10;0.60;;;0.60;;
21260;SDS011;10788;47.930;9.766;2023-06-22T13:25:36;0.50;;;0.50;;
21260;SDS011;10788;47.930;9.766;2023-06-22T13:28:02;0.60;;;0.60;;
21260;SDS011;10788;47.930;9.766;2023-06-22T13:30:28;0.67;;;0.67;;
21260;SDS011;10788;47.930;9.766;2023-06-22T13:32:53;0.47;;;0.47;;
21260;SDS011;10788;47.930;9.766;2023-06-22T13:35:19;0.30;;;0.30;;
21260;SDS011;10788;47.930;9.766;2023-06-22T13:37:44;0.40;;;0.40;;
21260;SDS011;10788;47.930;9.766;2023-06-22T13:40:10;0.40;;;0.40;;
21260;SDS011;10788;47.930;9.766;2023-06-22T13:42:36;0.50;;;0.50;;
21260;SDS011;10788;47.930;9.766;2023-06-22T13:45:02;0.50;;;0.50;;
21260;SDS011;10788;47.930;9.766;2023-06-22T13:47:29;0.40;;;0.40;;
21260;SDS011;10788;47.930;9.766;2023-06-22T13:49:55;0.43;;;0.43;;
21260;SDS011;10788;47.930;9.766;2023-06-22T13:52:22;0.40;;;0.40;;
21260;SDS011;10788;47.930;9.766;2023-06-22T13:54:48;0.40;;;0.40;;
21260;SDS011;10788;47.930;9.766;2023-06-22T13:57:13;0.43;;;0.43;;
21260;SDS011;10788;47.930;9.766;2023-06-22T13:59:39;0.40;;;0.40;;
21260;SDS011;10788;47.930;9.766;2023-06-22T14:02:05;0.40;;;0.40;;
21260;SDS011;10788;47.930;9.766;2023-06-22T14:04:31;0.50;;;0.50;;
21260;SDS011;10788;47.930;9.766;2023-06-22T14:06:57;0.40;;;0.40;;
21260;SDS011;10788;47.930;9.766;2023-06-22T14:09:22;0.40;;;0.40;;
21260;SDS011;10788;47.930;9.766;2023-06-22T14:11:48;0.50;;;0.50;;
21260;SDS011;10788;47.930;9.766;2023-06-22T14:14:13;0.40;;;0.40;;
21260;SDS011;10788;47.930;9.766;2023-06-22T14:16:39;0.57;;;0.57;;
21260;SDS011;10788;47.930;9.766;2023-06-22T14:19:05;0.40;;;0.40;;
21260;SDS011;10788;47.930;9.766;2023-06-22T14:21:30;0.53;;;0.53;;
21260;SDS011;10788;47.930;9.766;2023-06-22T14:23:56;0.50;;;0.50;;
21260;SDS011;10788;47.930;9.766;2023-06-22T14:26:21;0.50;;;0.50;;
21260;SDS011;10788;47.930;9.766;2023-06-22T14:28:47;0.47;;;0.47;;
21260;SDS011;10788;47.930;9.766;2023-06-22T14:31:15;0.57;;;0.57;;
21260;SDS011;10788;47.930;9.766;2023-06-22T14:33:44;0.30;;;0.30;;
21260;SDS011;10788;47.930;9.766;2023-06-22T14:36:11;0.50;;;0.50;;
21260;SDS011;10788;47.930;9.766;2023-06-22T14:38:37;0.47;;;0.47;;
21260;SDS011;10788;47.930;9.766;2023-06-22T14:41:02;0.30;;;0.30;;
21260;SDS011;10788;47.930;9.766;2023-06-22T14:43:28;0.40;;;0.40;;
21260;SDS011;10788;47.930;9.766;2023-06-22T14:45:54;0.60;;;0.60;;
21260;SDS011;10788;47.930;9.766;2023-06-22T14:48:19;0.50;;;0.50;;
21260;SDS011;10788;47.930;9.766;2023-06-22T14:50:45;0.43;;;0.43;;
21260;SDS011;10788;47.930;9.766;2023-06-22T14:53:11;0.50;;;0.50;;
21260;SDS011;10788;47.930;9.766;2023-06-22T14:55:36;0.60;;;0.60;;